Time;durP1;ratioP1;P1;durP2;ratioP2;P2;SDS_P1;SDS_P2;PMS_P1;PMS_P2;Temp;Humidity;BMP_temperature;BMP_pressure;BME280_temperature;BME280_humidity;BME280_pressure;Samples;Min_cycle;Max_cycle;Signal;HPM_P1;HPM_P2
2021/11/25 00:00:41;;;;;;;49.75;28.48;;;6.90;99.90;;;;;;5137581;27;20125;-70
2021/11/25 00:03:07;;;;;;;49.90;28.15;;;6.90;99.90;;;;;;5136774;27;20061;-70
2021/11/25 00:05:33;;;;;;;50.60;29.05;;;6.90;99.90;;;;;;5137750;27;20046;-69
2021/11/25 00:08:02;;;;;;;49.45;29.17;;;6.90;99.90;;;;;;5119157;27;20078;-70
2021/11/25 00:10:28;;;;;;;46.60;27.30;;;6.90;99.90;;;;;;5137500;27;20051;-70
2021/11/25 00:12:54;;;;;;;49.95;29.05;;;6.90;99.90;;;;;;5137703;27;20035;-70
2021/11/25 00:15:20;;;;;;;49.72;28.88;;;6.90;99.90;;;;;;5137657;27;20395;-70
2021/11/25 00:17:46;;;;;;;52.63;30.00;;;6.90;99.90;;;;;;5137597;27;20027;-69
2021/11/25 00:20:12;;;;;;;57.38;29.25;;;6.90;99.90;;;;;;5137243;27;20408;-70
2021/11/25 00:22:40;;;;;;;47.05;27.50;;;6.90;99.90;;;;;;5137312;27;20047;-70
2021/11/25 00:25:06;;;;;;;50.70;28.05;;;6.90;99.90;;;;;;5136652;27;20156;-70
2021/11/25 00:27:32;;;;;;;51.03;30.27;;;6.90;99.90;;;;;;5136933;27;20087;-70
2021/11/25 00:29:58;;;;;;;48.72;28.63;;;6.90;99.90;;;;;;5137470;27;20039;-70
2021/11/25 00:32:23;;;;;;;48.63;28.08;;;6.90;99.90;;;;;;5136504;27;20091;-70
2021/11/25 00:34:49;;;;;;;47.47;27.45;;;6.90;99.90;;;;;;5118664;27;20046;-69
2021/11/25 00:37:15;;;;;;;45.13;26.52;;;6.90;99.90;;;;;;5136621;27;20395;-69
2021/11/25 00:39:41;;;;;;;49.67;28.52;;;6.90;99.90;;;;;;5118882;27;20045;-70
2021/11/25 00:42:06;;;;;;;46.30;28.27;;;6.90;99.90;;;;;;5136810;27;20035;-70
2021/11/25 00:44:32;;;;;;;51.42;29.73;;;6.90;99.90;;;;;;5137298;27;20054;-70
2021/11/25 00:46:58;;;;;;;54.72;31.33;;;6.90;99.90;;;;;;5135386;27;20096;-70
2021/11/25 00:49:24;;;;;;;58.97;29.25;;;6.80;99.90;;;;;;5136070;27;20035;-70
2021/11/25 00:51:49;;;;;;;56.47;30.23;;;6.80;99.90;;;;;;5136902;27;20088;-70
2021/11/25 00:54:15;;;;;;;53.30;29.63;;;6.80;99.90;;;;;;5137395;27;20042;-70
2021/11/25 00:56:41;;;;;;;51.10;29.42;;;6.80;99.90;;;;;;5136842;27;20070;-70
2021/11/25 00:59:07;;;;;;;54.30;29.00;;;6.80;99.90;;;;;;5135484;27;20035;-70
2021/11/25 01:01:33;;;;;;;53.17;30.50;;;6.80;99.90;;;;;;5136414;27;20039;-70
2021/11/25 01:03:58;;;;;;;56.70;31.70;;;6.80;99.90;;;;;;5135381;27;20116;-70
2021/11/25 01:06:24;;;;;;;48.78;29.33;;;6.70;99.90;;;;;;5136194;27;20035;-70
2021/11/25 01:08:50;;;;;;;52.17;29.13;;;6.70;99.90;;;;;;5136424;27;20169;-70
2021/11/25 01:11:17;;;;;;;53.53;28.38;;;6.70;99.90;;;;;;5135265;27;20496;-70
2021/11/25 01:13:42;;;;;;;51.83;29.55;;;6.70;99.90;;;;;;5135007;27;20039;-70
2021/11/25 01:16:09;;;;;;;53.55;28.90;;;6.70;99.90;;;;;;5136201;27;20164;-70
2021/11/25 01:18:34;;;;;;;58.22;32.17;;;6.70;99.90;;;;;;5136252;27;20039;-70
2021/11/25 01:21:00;;;;;;;57.30;30.90;;;6.60;99.90;;;;;;5136519;27;20046;-69
2021/11/25 01:23:29;;;;;;;56.22;30.05;;;6.60;99.90;;;;;;5136126;27;20046;-70
2021/11/25 01:25:56;;;;;;;57.50;30.88;;;6.60;99.90;;;;;;5135760;27;20035;-70
2021/11/25 01:28:24;;;;;;;60.50;31.48;;;6.60;99.90;;;;;;5136406;27;20040;-70
2021/11/25 01:30:53;;;;;;;55.03;29.35;;;6.60;99.90;;;;;;5136270;27;20092;-70
2021/11/25 01:33:19;;;;;;;50.78;29.90;;;6.60;99.90;;;;;;5135931;27;20039;-70
2021/11/25 01:35:46;;;;;;;54.58;30.75;;;6.50;99.90;;;;;;5136060;27;20058;-70
2021/11/25 01:38:12;;;;;;;51.47;28.90;;;6.50;99.90;;;;;;5135999;27;20035;-70
2021/11/25 01:40:39;;;;;;;51.78;29.05;;;6.50;99.90;;;;;;5135826;27;20059;-70
2021/11/25 01:43:06;;;;;;;51.42;29.08;;;6.40;99.90;;;;;;5135630;27;20084;-69
2021/11/25 01:45:32;;;;;;;55.03;29.55;;;6.40;99.90;;;;;;5135383;27;20035;-70
2021/11/25 01:47:59;;;;;;;52.10;29.00;;;6.30;99.90;;;;;;5134324;27;20550;-69
2021/11/25 01:50:26;;;;;;;50.60;28.65;;;6.30;99.90;;;;;;5134361;27;20039;-69
2021/11/25 01:52:52;;;;;;;46.35;27.75;;;6.30;99.90;;;;;;5135689;27;20039;-70
2021/11/25 01:55:20;;;;;;;52.05;29.17;;;6.30;99.90;;;;;;5134177;27;20071;-70
2021/11/25 01:57:47;;;;;;;49.90;27.67;;;6.30;99.90;;;;;;5135409;27;20051;-69
2021/11/25 02:00:21;;;;;;;56.90;30.10;;;6.40;99.90;;;;;;5135848;27;20114;-70
2021/11/25 02:02:47;;;;;;;49.72;28.52;;;6.40;99.90;;;;;;5135932;27;20043;-70
2021/11/25 02:05:13;;;;;;;54.20;29.55;;;6.40;99.90;;;;;;5134115;27;20050;-69
2021/11/25 02:07:39;;;;;;;64.32;31.27;;;6.40;99.90;;;;;;5134907;27;20110;-70
2021/11/25 02:10:06;;;;;;;58.85;32.50;;;6.40;99.90;;;;;;5135258;27;20080;-70
2021/11/25 02:12:31;;;;;;;62.60;30.73;;;6.40;99.90;;;;;;5135177;27;20035;-70
2021/11/25 02:14:58;;;;;;;68.28;33.08;;;6.40;99.90;;;;;;5134946;27;20046;-70
2021/11/25 02:17:24;;;;;;;59.42;31.25;;;6.40;99.90;;;;;;5133051;27;20438;-70
2021/11/25 02:19:50;;;;;;;56.17;30.40;;;6.40;99.90;;;;;;5135082;27;20035;-69
2021/11/25 02:22:17;;;;;;;60.67;32.95;;;6.40;99.90;;;;;;5133829;27;20035;-69
2021/11/25 02:24:42;;;;;;;55.78;31.20;;;6.40;99.90;;;;;;5135305;27;20460;-70
2021/11/25 02:27:09;;;;;;;59.55;30.67;;;6.40;99.90;;;;;;5134274;27;20068;-69
2021/11/25 02:29:34;;;;;;;62.03;31.73;;;6.40;99.90;;;;;;5133926;27;20047;-70
2021/11/25 02:32:00;;;;;;;64.68;33.30;;;6.40;99.90;;;;;;5134731;27;20061;-70
2021/11/25 02:34:25;;;;;;;69.55;34.47;;;6.40;99.90;;;;;;5134913;27;20122;-70
2021/11/25 02:36:51;;;;;;;67.47;34.05;;;6.40;99.90;;;;;;5134445;27;20031;-70
2021/11/25 02:39:19;;;;;;;71.47;35.33;;;6.40;99.90;;;;;;5135065;27;20031;-70
2021/11/25 02:41:45;;;;;;;74.00;36.17;;;6.40;99.90;;;;;;5133857;27;20115;-70
2021/11/25 02:44:12;;;;;;;76.40;36.65;;;6.40;99.90;;;;;;5134745;27;20127;-70
2021/11/25 02:46:37;;;;;;;78.45;36.75;;;6.40;99.90;;;;;;5133083;27;20046;-69
2021/11/25 02:49:03;;;;;;;74.07;35.92;;;6.40;99.90;;;;;;5134592;27;20388;-70
2021/11/25 02:51:31;;;;;;;75.65;36.15;;;6.30;99.90;;;;;;5134690;27;20110;-70
2021/11/25 02:53:58;;;;;;;73.55;36.00;;;6.30;99.90;;;;;;5134854;27;20092;-70
2021/11/25 02:56:26;;;;;;;78.20;36.22;;;6.40;99.90;;;;;;5134234;27;20454;-70
2021/11/25 02:58:53;;;;;;;76.22;34.75;;;6.30;99.90;;;;;;5133230;27;20039;-70
2021/11/25 03:01:23;;;;;;;70.35;35.72;;;6.30;99.90;;;;;;5134436;27;20496;-70
2021/11/25 03:03:49;;;;;;;77.25;36.95;;;6.30;99.90;;;;;;5134571;27;20067;-70
2021/11/25 03:06:15;;;;;;;76.65;36.28;;;6.30;99.90;;;;;;5134158;27;20078;-69
2021/11/25 03:08:41;;;;;;;74.45;36.75;;;6.30;99.90;;;;;;5134605;27;20031;-70
2021/11/25 03:11:11;;;;;;;78.75;35.65;;;6.30;99.90;;;;;;5132959;27;20088;-70
2021/11/25 03:13:39;;;;;;;71.63;34.90;;;6.30;99.90;;;;;;5134554;27;20388;-70
2021/11/25 03:16:06;;;;;;;82.43;37.45;;;6.30;99.90;;;;;;5133837;27;20050;-69
2021/11/25 03:18:32;;;;;;;73.90;35.10;;;6.30;99.90;;;;;;5132905;28;20069;-70
2021/11/25 03:20:58;;;;;;;81.05;37.38;;;6.30;99.90;;;;;;5134149;28;20071;-70
2021/11/25 03:23:27;;;;;;;78.43;35.65;;;6.20;99.90;;;;;;5132790;28;20043;-70
2021/11/25 03:25:55;;;;;;;77.18;36.65;;;6.20;99.90;;;;;;5133896;27;20031;-70
2021/11/25 03:28:20;;;;;;;81.57;37.15;;;6.20;99.90;;;;;;5134774;27;20441;-70
2021/11/25 03:30:53;;;;;;;81.18;38.05;;;6.20;99.90;;;;;;5138400;27;20039;-69
2021/11/25 03:33:20;;;;;;;88.75;38.58;;;6.20;99.90;;;;;;5137288;27;20074;-70
2021/11/25 03:35:46;;;;;;;91.25;39.55;;;6.20;99.90;;;;;;5137229;27;20508;-70
2021/11/25 03:38:12;;;;;;;82.55;39.72;;;6.20;99.90;;;;;;5138481;27;20043;-70
2021/11/25 03:40:38;;;;;;;98.55;41.65;;;6.20;99.90;;;;;;5137941;27;20065;-70
2021/11/25 03:43:03;;;;;;;86.00;40.00;;;6.20;99.90;;;;;;5136950;27;20038;-69
2021/11/25 03:45:29;;;;;;;97.93;42.13;;;6.20;99.90;;;;;;5136828;27;20481;-70
2021/11/25 03:47:55;;;;;;;88.07;40.00;;;6.20;99.90;;;;;;5138092;27;20037;-70
2021/11/25 03:50:21;;;;;;;91.68;41.80;;;6.20;99.90;;;;;;5138083;27;20118;-70
2021/11/25 03:52:46;;;;;;;90.25;40.90;;;6.20;99.90;;;;;;5137181;27;20039;-70
2021/11/25 03:55:14;;;;;;;96.88;42.25;;;6.20;99.90;;;;;;5137734;27;20089;-70
2021/11/25 03:57:40;;;;;;;97.47;42.58;;;6.20;99.90;;;;;;5137500;27;20039;-70
2021/11/25 04:00:10;;;;;;;98.78;41.42;;;6.20;99.90;;;;;;5136531;27;20035;-70
2021/11/25 04:02:36;;;;;;;91.43;42.92;;;6.20;99.90;;;;;;5137805;27;20039;-70
2021/11/25 04:05:02;;;;;;;91.05;40.72;;;6.20;99.90;;;;;;5136339;27;20050;-70
2021/11/25 04:07:28;;;;;;;87.38;41.25;;;6.20;99.90;;;;;;5137361;27;20039;-69
2021/11/25 04:09:53;;;;;;;96.03;43.55;;;6.20;99.90;;;;;;5136539;27;20091;-70
2021/11/25 04:12:19;;;;;;;100.47;42.38;;;6.20;99.90;;;;;;5136454;27;20396;-70
2021/11/25 04:14:45;;;;;;;96.57;41.63;;;6.20;99.90;;;;;;5137868;27;20031;-70
2021/11/25 04:17:10;;;;;;;87.85;37.15;;;6.20;99.90;;;;;;5137273;27;20069;-70
2021/11/25 04:19:36;;;;;;;96.50;41.05;;;6.20;99.90;;;;;;5137409;27;20035;-70
2021/11/25 04:22:02;;;;;;;87.68;38.40;;;6.20;99.90;;;;;;5137649;27;20039;-70
2021/11/25 04:24:27;;;;;;;89.80;39.40;;;6.20;99.90;;;;;;5135999;27;20092;-70
2021/11/25 04:26:53;;;;;;;95.05;41.03;;;6.20;99.90;;;;;;5136796;27;20431;-70
2021/11/25 04:29:19;;;;;;;93.28;40.85;;;6.10;99.90;;;;;;5137618;27;20088;-70
2021/11/25 04:37:13;;;;;;;78.57;35.15;;;6.10;99.90;;;;;;5135799;27;20051;-70
2021/11/25 04:39:39;;;;;;;79.57;38.13;;;6.10;99.90;;;;;;5136468;27;20038;-70
2021/11/25 04:42:05;;;;;;;80.10;38.25;;;6.00;99.90;;;;;;5137562;27;20430;-70
2021/11/25 04:44:31;;;;;;;84.40;39.00;;;6.00;99.90;;;;;;5135684;27;20038;-70
2021/11/25 04:46:56;;;;;;;78.00;37.03;;;6.00;99.90;;;;;;5136721;27;20031;-70
2021/11/25 04:49:22;;;;;;;79.88;37.58;;;5.90;99.90;;;;;;5135984;27;20039;-70
2021/11/25 04:51:48;;;;;;;75.70;35.70;;;5.90;99.90;;;;;;5137135;27;20042;-70
2021/11/25 04:54:14;;;;;;;83.45;38.58;;;5.90;99.90;;;;;;5135785;27;20096;-70
2021/11/25 04:56:39;;;;;;;77.43;36.00;;;5.80;99.90;;;;;;5136792;27;20043;-70
2021/11/25 04:59:05;;;;;;;77.93;35.97;;;5.80;99.90;;;;;;5137346;27;20071;-70
2021/11/25 05:01:30;;;;;;;77.13;36.20;;;5.80;99.90;;;;;;5137105;27;20047;-70
2021/11/25 05:03:56;;;;;;;83.47;39.17;;;5.70;99.90;;;;;;5136626;27;20086;-70
2021/11/25 05:06:22;;;;;;;70.32;33.90;;;5.60;99.90;;;;;;5135415;27;20376;-70
2021/11/25 05:08:47;;;;;;;79.55;34.40;;;5.60;99.90;;;;;;5135209;27;20041;-70
2021/11/25 05:11:13;;;;;;;76.85;35.95;;;5.60;99.90;;;;;;5135350;27;20122;-70
2021/11/25 05:13:40;;;;;;;81.63;38.20;;;5.60;99.90;;;;;;5133278;27;20043;-70
2021/11/25 05:16:05;;;;;;;75.43;35.38;;;5.60;99.90;;;;;;5115376;28;20054;-70
2021/11/25 05:18:31;;;;;;;85.90;38.35;;;5.50;99.90;;;;;;5116440;28;20453;-70
2021/11/25 05:20:57;;;;;;;86.47;37.15;;;5.50;99.90;;;;;;5115536;28;20047;-70
2021/11/25 05:23:23;;;;;;;90.20;41.08;;;5.50;99.90;;;;;;5115886;28;20044;-70
2021/11/25 05:25:49;;;;;;;97.45;42.13;;;5.50;99.90;;;;;;5115063;28;20074;-70
2021/11/25 05:28:14;;;;;;;93.40;39.42;;;5.60;99.90;;;;;;5115459;28;20473;-70
2021/11/25 05:30:40;;;;;;;96.70;42.17;;;5.60;99.90;;;;;;5115443;28;20083;-70
2021/11/25 05:33:06;;;;;;;103.45;41.47;;;5.60;99.90;;;;;;5115873;28;20071;-70
2021/11/25 05:35:32;;;;;;;102.07;45.13;;;5.70;99.90;;;;;;5114966;28;20050;-70
2021/11/25 05:37:58;;;;;;;114.55;46.80;;;5.70;99.90;;;;;;5113985;28;20078;-70
2021/11/25 05:40:24;;;;;;;108.43;43.97;;;5.70;99.90;;;;;;5115198;27;20076;-69
2021/11/25 05:42:49;;;;;;;105.95;45.13;;;5.70;99.90;;;;;;5115412;28;20035;-70
2021/11/25 05:45:18;;;;;;;115.93;45.03;;;5.80;99.90;;;;;;5115772;28;20032;-70
2021/11/25 05:47:46;;;;;;;109.95;45.55;;;5.80;99.90;;;;;;5114987;28;20031;-70
2021/11/25 05:50:17;;;;;;;119.50;47.38;;;5.80;99.90;;;;;;5114094;28;20554;-70
2021/11/25 05:52:45;;;;;;;118.57;46.75;;;5.80;99.90;;;;;;5115431;28;20084;-70
2021/11/25 05:55:11;;;;;;;126.45;48.55;;;5.80;99.90;;;;;;5115363;28;20063;-69
2021/11/25 05:57:36;;;;;;;117.55;47.55;;;5.80;99.90;;;;;;5113191;28;20508;-70
2021/11/25 06:00:10;;;;;;;122.45;50.78;;;5.80;99.90;;;;;;5115230;28;20397;-70
2021/11/25 06:02:36;;;;;;;125.18;49.30;;;5.80;99.90;;;;;;5114867;28;20039;-69
2021/11/25 06:05:02;;;;;;;127.50;51.20;;;5.90;99.90;;;;;;5115134;28;20087;-69
2021/11/25 06:07:27;;;;;;;121.70;50.55;;;5.90;99.90;;;;;;5114311;28;20111;-69
2021/11/25 06:09:53;;;;;;;125.93;51.72;;;5.90;99.90;;;;;;5115039;28;20506;-69
2021/11/25 06:12:18;;;;;;;128.32;53.58;;;5.90;99.90;;;;;;5114954;28;20050;-69
2021/11/25 06:14:44;;;;;;;126.82;51.17;;;5.90;99.90;;;;;;5114795;28;20040;-69
2021/11/25 06:17:10;;;;;;;122.30;50.42;;;5.90;99.90;;;;;;5114297;28;20075;-69
2021/11/25 06:19:35;;;;;;;117.78;50.92;;;5.90;99.90;;;;;;5114548;28;20050;-69
2021/11/25 06:22:01;;;;;;;131.38;52.28;;;6.00;99.90;;;;;;5113215;28;20104;-69
2021/11/25 06:24:26;;;;;;;130.27;51.95;;;5.90;99.90;;;;;;5114365;28;20035;-70
2021/11/25 06:26:53;;;;;;;123.70;53.10;;;5.90;99.90;;;;;;5113870;28;20036;-70
2021/11/25 06:29:18;;;;;;;140.50;54.50;;;5.90;99.90;;;;;;5114334;28;20131;-70
2021/11/25 06:31:44;;;;;;;127.03;53.75;;;5.90;99.90;;;;;;5095969;28;20078;-70
2021/11/25 06:34:11;;;;;;;128.40;53.15;;;5.90;99.90;;;;;;5114248;28;20042;-70
2021/11/25 06:36:40;;;;;;;132.73;56.45;;;5.90;99.90;;;;;;5113663;28;20389;-69
2021/11/25 06:39:06;;;;;;;130.40;52.63;;;6.00;99.90;;;;;;5114528;28;20500;-70
2021/11/25 06:41:33;;;;;;;133.98;54.38;;;5.90;99.90;;;;;;5112522;28;20055;-69
2021/11/25 06:43:58;;;;;;;127.90;54.05;;;5.90;99.90;;;;;;5113776;28;20043;-69
2021/11/25 06:46:24;;;;;;;139.35;54.70;;;5.90;99.90;;;;;;5113721;28;20369;-70
2021/11/25 06:48:49;;;;;;;129.88;55.35;;;6.00;99.90;;;;;;5114200;28;20485;-70
2021/11/25 06:51:15;;;;;;;130.57;53.88;;;6.00;99.90;;;;;;5096084;28;20047;-70
2021/11/25 06:53:41;;;;;;;136.10;54.97;;;6.00;99.90;;;;;;5114411;28;20035;-70
2021/11/25 06:56:07;;;;;;;129.20;55.80;;;6.00;99.90;;;;;;5113581;28;20032;-69
2021/11/25 06:58:33;;;;;;;136.75;56.65;;;6.00;99.90;;;;;;5114036;28;20401;-69
2021/11/25 07:01:02;;;;;;;134.80;53.17;;;6.00;99.90;;;;;;5114116;28;20065;-69
2021/11/25 07:03:28;;;;;;;134.65;55.78;;;6.00;99.90;;;;;;5113737;28;20035;-69
2021/11/25 07:05:53;;;;;;;139.45;58.60;;;6.00;99.90;;;;;;5113613;28;20477;-69
2021/11/25 07:08:19;;;;;;;137.40;56.75;;;6.00;99.90;;;;;;5113928;28;20036;-69
2021/11/25 07:10:45;;;;;;;135.20;55.08;;;5.90;99.90;;;;;;5114036;28;20404;-70
2021/11/25 07:13:10;;;;;;;147.15;57.13;;;6.00;99.90;;;;;;5114237;28;20040;-69
2021/11/25 07:15:36;;;;;;;143.43;58.50;;;5.90;99.90;;;;;;5114222;28;20040;-70
2021/11/25 07:18:02;;;;;;;134.75;56.83;;;6.00;99.90;;;;;;5113911;28;20036;-70
2021/11/25 07:20:28;;;;;;;147.65;59.15;;;6.00;99.90;;;;;;5113383;28;20047;-69
2021/11/25 07:22:53;;;;;;;150.75;57.00;;;6.00;99.90;;;;;;5114041;28;20032;-70
2021/11/25 07:25:20;;;;;;;140.25;58.33;;;6.00;99.90;;;;;;5114333;28;20034;-70
2021/11/25 07:27:46;;;;;;;141.40;59.58;;;6.00;99.90;;;;;;5112795;28;20442;-70
2021/11/25 07:30:14;;;;;;;152.20;59.50;;;6.00;99.90;;;;;;5113745;28;20053;-70
2021/11/25 07:32:40;;;;;;;147.52;60.00;;;6.00;99.90;;;;;;5113841;28;20048;-69
2021/11/25 07:35:07;;;;;;;143.63;58.08;;;6.00;99.90;;;;;;5114552;28;20035;-69
2021/11/25 07:37:33;;;;;;;142.98;60.08;;;6.10;99.90;;;;;;5113763;28;20433;-70
2021/11/25 07:39:59;;;;;;;154.05;60.08;;;6.10;99.90;;;;;;5113772;28;20074;-70
2021/11/25 07:42:25;;;;;;;143.82;63.10;;;6.10;99.90;;;;;;5113787;28;20447;-69
2021/11/25 07:44:50;;;;;;;149.00;61.15;;;6.10;99.90;;;;;;5113435;28;20130;-69
2021/11/25 07:47:21;;;;;;;144.93;61.83;;;6.10;99.90;;;;;;5112603;28;20040;-69
2021/11/25 07:49:46;;;;;;;138.98;56.78;;;6.10;99.90;;;;;;5113659;28;20463;-69
2021/11/25 07:52:12;;;;;;;141.95;57.83;;;6.10;99.90;;;;;;5113572;28;20059;-69
2021/11/25 07:54:37;;;;;;;140.85;60.30;;;6.10;99.90;;;;;;5112587;28;20542;-69
2021/11/25 07:57:03;;;;;;;145.38;61.75;;;6.10;99.90;;;;;;5113020;28;20032;-69
2021/11/25 07:59:29;;;;;;;137.88;60.25;;;6.10;99.90;;;;;;5113335;28;20457;-69
2021/11/25 08:01:56;;;;;;;134.25;59.42;;;6.20;99.90;;;;;;5113683;28;20039;-69
2021/11/25 08:04:25;;;;;;;147.93;62.35;;;6.20;99.90;;;;;;5113730;28;20039;-69
2021/11/25 08:06:51;;;;;;;146.25;62.05;;;6.20;99.90;;;;;;5112912;28;20039;-69
2021/11/25 08:09:17;;;;;;;155.88;63.78;;;6.20;99.90;;;;;;5113228;28;20032;-69
2021/11/25 08:11:43;;;;;;;149.55;63.00;;;6.20;99.90;;;;;;5113214;28;20050;-69
2021/11/25 08:14:08;;;;;;;148.73;63.15;;;6.20;99.90;;;;;;5114954;28;20045;-69
2021/11/25 08:16:34;;;;;;;153.82;60.22;;;6.20;99.90;;;;;;5116917;28;20126;-69
2021/11/25 08:18:59;;;;;;;147.40;61.58;;;6.20;99.90;;;;;;5116804;28;20399;-69
2021/11/25 08:21:25;;;;;;;147.30;61.35;;;6.20;99.90;;;;;;5116821;28;20031;-69
2021/11/25 08:23:51;;;;;;;149.55;61.58;;;6.20;99.90;;;;;;5116985;28;20071;-69
2021/11/25 08:26:16;;;;;;;146.68;60.88;;;6.20;99.90;;;;;;5116462;28;20031;-69
2021/11/25 08:28:42;;;;;;;136.02;58.13;;;6.20;99.90;;;;;;5116889;28;20069;-69
2021/11/25 08:31:10;;;;;;;146.40;61.95;;;6.20;99.90;;;;;;5116987;28;20043;-69
2021/11/25 08:33:37;;;;;;;142.43;60.22;;;6.20;99.90;;;;;;5116503;28;20504;-69
2021/11/25 08:36:03;;;;;;;145.80;62.47;;;6.20;99.90;;;;;;5116887;28;20449;-68
2021/11/25 08:38:30;;;;;;;146.80;63.28;;;6.30;99.90;;;;;;5117031;28;20046;-69
2021/11/25 08:40:56;;;;;;;143.88;61.08;;;6.30;99.90;;;;;;5116452;28;20086;-69
2021/11/25 08:43:23;;;;;;;139.50;63.08;;;6.30;99.90;;;;;;5116304;28;20472;-69
2021/11/25 08:45:49;;;;;;;143.70;62.75;;;6.30;99.90;;;;;;5114695;28;20043;-69
2021/11/25 08:48:14;;;;;;;156.07;65.63;;;6.30;99.90;;;;;;5116699;28;20104;-69
2021/11/25 08:50:41;;;;;;;163.05;64.20;;;6.30;99.90;;;;;;5116795;28;20036;-69
2021/11/25 08:53:07;;;;;;;158.57;64.90;;;6.30;99.90;;;;;;5116291;28;20110;-69
2021/11/25 08:55:35;;;;;;;158.65;65.65;;;6.30;99.90;;;;;;5116065;28;20110;-69
2021/11/25 08:58:02;;;;;;;171.77;66.90;;;6.30;99.90;;;;;;5116194;27;20043;-69
2021/11/25 09:00:28;;;;;;;166.00;66.63;;;6.40;99.90;;;;;;5116531;28;20050;-69
2021/11/25 09:02:53;;;;;;;166.25;64.55;;;6.40;99.90;;;;;;5115019;28;20032;-70
2021/11/25 09:05:19;;;;;;;170.45;69.00;;;6.50;99.90;;;;;;5116794;28;20511;-69
2021/11/25 09:07:45;;;;;;;150.48;62.03;;;6.50;99.90;;;;;;5116100;27;20035;-70
2021/11/25 09:10:11;;;;;;;179.35;66.75;;;6.50;99.90;;;;;;5116083;28;20054;-69
2021/11/25 09:12:36;;;;;;;154.50;64.13;;;6.50;99.90;;;;;;5116027;28;20085;-69
2021/11/25 09:15:02;;;;;;;164.65;66.60;;;6.60;99.90;;;;;;5116194;28;20035;-69
2021/11/25 09:17:28;;;;;;;156.95;64.13;;;6.60;99.90;;;;;;5115481;28;20122;-70
2021/11/25 09:19:54;;;;;;;149.35;62.20;;;6.60;99.90;;;;;;5114815;28;20039;-69
2021/11/25 09:22:19;;;;;;;164.50;66.60;;;6.60;99.90;;;;;;5116364;28;20422;-69
2021/11/25 09:24:45;;;;;;;147.40;61.45;;;6.60;99.90;;;;;;5115339;28;20114;-69
2021/11/25 09:27:11;;;;;;;141.27;62.45;;;6.60;99.90;;;;;;5115040;28;20035;-70
2021/11/25 09:29:37;;;;;;;143.18;59.40;;;6.60;99.90;;;;;;5115814;28;20035;-69
2021/11/25 09:32:03;;;;;;;163.98;63.78;;;6.60;99.90;;;;;;5115875;28;20027;-69
2021/11/25 09:34:29;;;;;;;153.95;60.60;;;6.60;99.90;;;;;;5115909;28;20043;-69
2021/11/25 09:36:54;;;;;;;149.40;62.33;;;6.60;99.90;;;;;;5114857;28;20044;-69
2021/11/25 09:39:20;;;;;;;150.45;60.28;;;6.70;99.90;;;;;;5114220;28;20078;-69
2021/11/25 09:41:47;;;;;;;142.05;60.00;;;6.70;99.90;;;;;;5114253;27;20058;-69
2021/11/25 09:44:13;;;;;;;162.60;60.72;;;6.70;99.90;;;;;;5115689;28;20381;-69
2021/11/25 09:46:38;;;;;;;164.15;62.25;;;6.80;99.90;;;;;;5114880;28;20043;-69
2021/11/25 09:49:05;;;;;;;154.57;61.08;;;6.80;99.90;;;;;;5115441;27;20047;-69
2021/11/25 09:51:31;;;;;;;152.02;62.13;;;6.80;99.90;;;;;;5115162;28;20043;-69
2021/11/25 09:53:56;;;;;;;145.38;59.13;;;6.80;99.90;;;;;;5115430;28;20434;-69
2021/11/25 09:56:22;;;;;;;144.95;59.45;;;6.90;99.90;;;;;;5114673;28;20035;-69
2021/11/25 09:58:50;;;;;;;143.15;57.20;;;7.00;99.90;;;;;;5115042;28;20172;-69
2021/11/25 10:01:19;;;;;;;142.10;57.67;;;7.00;99.90;;;;;;5113534;28;20044;-69
2021/11/25 10:03:49;;;;;;;142.27;61.97;;;7.00;99.90;;;;;;5114880;28;20429;-69
2021/11/25 10:06:19;;;;;;;137.45;58.17;;;7.00;99.90;;;;;;5114454;28;20067;-69
2021/11/25 10:08:49;;;;;;;136.13;55.22;;;7.10;99.90;;;;;;5114677;28;20430;-69
2021/11/25 10:11:20;;;;;;;143.27;56.97;;;7.10;99.90;;;;;;5114824;28;20117;-70
2021/11/25 10:13:48;;;;;;;133.43;55.83;;;7.10;99.90;;;;;;5115396;28;20040;-69
2021/11/25 10:16:17;;;;;;;127.65;52.00;;;7.20;99.90;;;;;;5114211;28;20084;-69
2021/11/25 10:18:44;;;;;;;126.60;52.78;;;7.20;99.90;;;;;;5114619;28;20036;-69
2021/11/25 10:21:12;;;;;;;120.85;53.53;;;7.20;99.90;;;;;;5114480;28;20054;-69
2021/11/25 10:23:39;;;;;;;132.05;55.85;;;7.20;99.90;;;;;;5113219;28;20492;-69
2021/11/25 10:26:11;;;;;;;122.38;49.75;;;7.30;99.90;;;;;;5114034;28;20042;-70
2021/11/25 10:29:07;;;;;;;124.30;51.33;;;7.30;99.90;;;;;;5114678;28;20081;-69
2021/11/25 10:31:36;;;;;;;116.53;49.95;;;7.30;99.90;;;;;;5128174;27;20048;-69
2021/11/25 10:34:23;;;;;;;123.28;51.55;;;7.40;99.90;;;;;;5113418;28;20126;-69
2021/11/25 10:42:14;;;;;;;118.10;46.25;;;7.60;99.90;;;;;;5112821;28;20480;-69
2021/11/25 10:44:44;;;;;;;110.80;45.85;;;7.60;99.90;;;;;;5114312;28;20131;-69
2021/11/25 10:47:15;;;;;;;107.63;45.70;;;7.70;99.90;;;;;;5113943;28;20039;-70
2021/11/25 10:49:51;;;;;;;95.80;42.20;;;7.70;99.90;;;;;;5114202;28;20039;-70
2021/11/25 10:52:17;;;;;;;108.78;42.22;;;7.80;99.90;;;;;;5112765;28;20044;-70
2021/11/25 10:54:46;;;;;;;92.07;37.88;;;7.80;99.90;;;;;;5112736;28;20055;-70
2021/11/25 10:57:12;;;;;;;92.38;38.55;;;7.80;99.90;;;;;;5112310;28;20051;-70
2021/11/25 10:59:42;;;;;;;91.43;39.17;;;7.80;99.90;;;;;;5114430;28;20039;-73
2021/11/25 11:02:18;;;;;;;90.05;37.40;;;7.80;99.90;;;;;;5114103;28;20138;-69
2021/11/25 11:04:46;;;;;;;85.43;35.83;;;7.80;99.90;;;;;;5114523;28;20089;-69
2021/11/25 11:07:44;;;;;;;89.97;36.20;;;7.90;99.90;;;;;;5112474;28;20047;-69
2021/11/25 11:10:25;;;;;;;76.45;32.55;;;7.90;99.90;;;;;;5126327;27;20063;-70
2021/11/25 11:13:11;;;;;;;67.18;31.90;;;8.00;99.90;;;;;;5112930;28;20491;-70
2021/11/25 11:20:45;;;;;;;69.13;31.23;;;8.00;99.90;;;;;;5114000;28;20043;-69
2021/11/25 11:23:12;;;;;;;72.68;30.63;;;8.10;99.90;;;;;;5114068;28;20072;-69
2021/11/25 11:25:42;;;;;;;68.97;29.30;;;8.10;99.90;;;;;;5113062;28;20040;-70
2021/11/25 11:28:09;;;;;;;66.25;28.80;;;8.10;99.90;;;;;;5132506;28;20469;-70
2021/11/25 11:30:35;;;;;;;61.97;25.75;;;8.20;99.90;;;;;;5134050;27;20103;-70
2021/11/25 11:33:05;;;;;;;52.25;22.92;;;8.20;99.90;;;;;;5134056;27;20054;-69
2021/11/25 11:35:31;;;;;;;40.88;21.05;;;8.20;99.90;;;;;;5133584;27;20047;-71
2021/11/25 11:38:02;;;;;;;40.80;16.92;;;8.20;99.90;;;;;;5132805;28;20054;-69
2021/11/25 11:40:32;;;;;;;25.95;12.73;;;8.20;99.90;;;;;;5133026;28;20480;-69
2021/11/25 11:43:00;;;;;;;20.67;9.07;;;8.20;99.90;;;;;;5133280;28;20059;-70
2021/11/25 11:45:28;;;;;;;20.67;5.53;;;8.20;99.90;;;;;;5132913;28;20050;-69
2021/11/25 11:47:57;;;;;;;16.17;3.88;;;8.20;99.90;;;;;;5132704;27;20039;-70
2021/11/25 11:50:39;;;;;;;9.65;2.72;;;8.10;99.90;;;;;;5138147;27;20039;-70
2021/11/25 11:53:07;;;;;;;14.10;2.40;;;8.20;99.90;;;;;;5138228;27;20046;-70
2021/11/25 11:55:44;;;;;;;9.10;1.77;;;8.10;99.90;;;;;;5138094;27;20043;-69
2021/11/25 11:58:25;;;;;;;8.38;1.65;;;8.10;99.90;;;;;;5138036;27;20042;-70
2021/11/25 12:00:57;;;;;;;7.43;1.60;;;8.10;99.90;;;;;;5137830;27;20681;-69
2021/11/25 12:03:39;;;;;;;14.93;2.28;;;8.00;99.90;;;;;;5136815;27;20050;-69
2021/11/25 12:06:05;;;;;;;13.40;1.85;;;8.00;99.90;;;;;;5136291;27;20039;-69
2021/11/25 12:08:34;;;;;;;8.25;1.98;;;8.00;99.90;;;;;;5137049;27;20058;-71
2021/11/25 12:11:05;;;;;;;17.75;2.78;;;8.00;99.90;;;;;;5136688;27;20128;-70
2021/11/25 12:13:40;;;;;;;8.77;2.22;;;8.10;99.90;;;;;;5136457;27;20038;-69
2021/11/25 12:16:20;;;;;;;14.30;1.80;;;8.10;99.90;;;;;;5137354;27;20047;-68
2021/11/25 12:18:57;;;;;;;14.38;3.00;;;8.20;99.90;;;;;;5137439;27;20491;-69
2021/11/25 12:21:36;;;;;;;7.30;1.35;;;8.40;99.90;;;;;;5137365;27;20123;-69
2021/11/25 12:24:22;;;;;;;15.13;1.80;;;8.50;99.90;;;;;;5136959;27;20035;-68
2021/11/25 12:27:09;;;;;;;8.68;2.00;;;8.50;99.90;;;;;;5132540;27;20050;-68
2021/11/25 12:29:35;;;;;;;6.18;1.67;;;8.50;99.90;;;;;;5136348;27;20043;-68
2021/11/25 12:32:52;;;;;;;4.80;1.52;;;8.40;99.90;;;;;;5137205;27;20035;-68
2021/11/25 12:35:18;;;;;;;11.90;1.20;;;8.40;99.90;;;;;;5135489;27;20047;-68
2021/11/25 12:37:47;;;;;;;9.60;1.63;;;8.20;99.90;;;;;;5136489;27;20061;-69
2021/11/25 12:40:21;;;;;;;4.32;1.00;;;8.10;99.90;;;;;;5137187;27;20500;-68
2021/11/25 12:43:05;;;;;;;9.27;1.48;;;8.00;99.90;;;;;;5135713;27;20050;-69
2021/11/25 12:45:36;;;;;;;9.45;1.35;;;7.90;99.90;;;;;;5136577;27;20403;-69
2021/11/25 12:48:04;;;;;;;11.90;1.50;;;7.80;99.90;;;;;;5136921;27;20576;-69
2021/11/25 12:50:32;;;;;;;7.57;1.58;;;7.80;99.90;;;;;;5136853;27;20067;-69